createdAt,value
2023-10-18T00:01:03.820Z,43.50
2023-10-18T00:03:31.755Z,43.40
2023-10-18T00:05:59.282Z,43.50
2023-10-18T00:08:26.248Z,43.50
2023-10-18T00:10:54.756Z,43.50
2023-10-18T00:13:24.740Z,43.40
2023-10-18T00:15:54.478Z,43.40
2023-10-18T00:18:21.981Z,43.40
2023-10-18T00:20:49.099Z,43.40
2023-10-18T00:23:16.032Z,43.40
2023-10-18T00:25:42.976Z,43.40
2023-10-18T00:28:10.221Z,43.40
2023-10-18T00:30:37.495Z,43.40
2023-10-18T00:33:07.724Z,43.40
2023-10-18T00:35:37.607Z,43.40
2023-10-18T00:38:04.778Z,43.40
2023-10-18T00:40:35.709Z,43.40
2023-10-18T00:43:30.402Z,43.40
2023-10-18T00:45:58.218Z,43.40
2023-10-18T00:48:26.264Z,43.40
2023-10-18T00:50:53.785Z,43.40
2023-10-18T00:53:21.960Z,43.40
2023-10-18T00:55:49.811Z,43.40
2023-10-18T00:58:17.223Z,43.40
2023-10-18T01:00:45.490Z,43.40
2023-10-18T01:03:32.492Z,43.40
2023-10-18T01:06:05.558Z,43.40
2023-10-18T01:08:33.735Z,43.40
2023-10-18T01:11:14.360Z,43.50
2023-10-18T01:13:43.852Z,43.50
2023-10-18T01:16:24.721Z,43.50
2023-10-18T01:18:53.686Z,43.60
2023-10-18T01:21:21.937Z,43.50
2023-10-18T01:24:01.443Z,43.50
2023-10-18T01:26:30.058Z,43.60
2023-10-18T01:28:57.884Z,43.60
2023-10-18T01:31:25.229Z,43.60
2023-10-18T01:33:52.788Z,43.50
2023-10-18T01:36:22.487Z,43.50
2023-10-18T01:38:50.930Z,43.50
2023-10-18T01:41:27.468Z,43.50
2023-10-18T01:43:57.294Z,43.50
2023-10-18T01:46:25.073Z,43.50
2023-10-18T01:48:52.573Z,43.50
2023-10-18T01:51:21.127Z,43.40
2023-10-18T01:53:48.171Z,43.50
2023-10-18T01:56:18.975Z,43.50
2023-10-18T01:58:47.819Z,43.40
2023-10-18T02:01:17.974Z,43.40
2023-10-18T02:03:46.331Z,43.50
2023-10-18T02:06:16.909Z,43.40
2023-10-18T02:08:43.882Z,43.40
2023-10-18T02:11:10.909Z,43.50
2023-10-18T02:13:37.821Z,43.50
2023-10-18T02:16:08.133Z,43.40
2023-10-18T02:18:35.510Z,43.30
2023-10-18T02:21:04.251Z,43.40
2023-10-18T02:23:36.146Z,43.40
2023-10-18T02:26:13.957Z,43.40
2023-10-18T02:28:42.167Z,43.40
2023-10-18T02:31:12.178Z,43.40
2023-10-18T02:33:39.907Z,43.40
2023-10-18T02:36:08.067Z,43.50
2023-10-18T02:38:35.019Z,43.40
2023-10-18T02:41:16.084Z,43.50
2023-10-18T02:43:53.021Z,43.50
2023-10-18T02:46:26.749Z,43.40
2023-10-18T02:48:55.473Z,43.50
2023-10-18T02:51:23.602Z,43.50
2023-10-18T02:53:52.856Z,43.40
2023-10-18T02:56:34.195Z,43.40
2023-10-18T02:59:07.690Z,43.40
2023-10-18T03:01:36.049Z,43.40
2023-10-18T03:04:08.054Z,43.40
2023-10-18T03:06:35.149Z,43.40
2023-10-18T03:09:02.284Z,43.40
2023-10-18T03:11:29.261Z,43.40
2023-10-18T03:13:59.225Z,43.40
2023-10-18T03:16:43.838Z,43.40
2023-10-18T03:19:13.920Z,43.40
2023-10-18T03:21:43.259Z,43.40
2023-10-18T03:24:13.784Z,43.40
2023-10-18T03:26:42.434Z,43.40
2023-10-18T03:29:16.709Z,43.40
2023-10-18T03:31:45.507Z,43.40
2023-10-18T03:34:19.562Z,43.40
2023-10-18T03:36:50.715Z,43.30
2023-10-18T03:39:17.998Z,43.40
2023-10-18T03:41:51.157Z,43.40
2023-10-18T03:44:28.157Z,43.40
2023-10-18T03:47:05.100Z,43.40
2023-10-18T03:49:34.467Z,43.40
2023-10-18T03:52:18.183Z,43.40
2023-10-18T03:54:47.033Z,43.40
2023-10-18T03:57:17.923Z,43.40
2023-10-18T03:59:48.637Z,43.30
2023-10-18T04:02:29.044Z,43.30
2023-10-18T04:04:59.735Z,43.30
2023-10-18T04:07:28.143Z,43.20
2023-10-18T04:09:55.695Z,43.10
2023-10-18T04:12:23.671Z,43.10
2023-10-18T04:14:54.266Z,43.10
2023-10-18T04:17:33.268Z,43.00
2023-10-18T04:20:01.764Z,42.90
2023-10-18T04:22:32.090Z,42.90
2023-10-18T04:24:59.142Z,42.90
2023-10-18T04:27:27.695Z,42.80
2023-10-18T04:29:57.343Z,42.80
2023-10-18T04:32:24.760Z,42.70
2023-10-18T04:34:51.856Z,42.70
2023-10-18T04:37:23.969Z,42.60
2023-10-18T04:39:51.271Z,42.40
2023-10-18T04:42:18.453Z,42.40
2023-10-18T04:44:51.545Z,42.30
2023-10-18T04:47:19.329Z,42.10
2023-10-18T04:50:02.247Z,42.00
2023-10-18T04:52:41.790Z,41.80
2023-10-18T04:55:13.596Z,41.60
2023-10-18T04:57:41.721Z,41.70
2023-10-18T05:00:26.351Z,41.70
2023-10-18T05:02:54.067Z,41.80
2023-10-18T05:05:21.402Z,41.80
2023-10-18T05:07:49.343Z,41.70
2023-10-18T05:10:17.845Z,41.60
2023-10-18T05:12:54.975Z,41.60
2023-10-18T05:15:32.816Z,41.60
2023-10-18T05:18:16.591Z,41.60
2023-10-18T05:20:48.387Z,41.40
2023-10-18T05:23:23.336Z,41.30
2023-10-18T05:25:55.090Z,41.10
2023-10-18T05:28:29.955Z,41.00
2023-10-18T05:31:13.436Z,41.40
2023-10-18T05:33:48.292Z,41.50
2023-10-18T05:36:35.125Z,41.60
2023-10-18T05:39:22.927Z,41.80
2023-10-18T05:42:00.714Z,41.80
2023-10-18T05:44:30.241Z,41.90
2023-10-18T05:46:58.458Z,41.70
2023-10-18T05:49:30.090Z,41.50
2023-10-18T05:52:17.816Z,41.40
2023-10-18T05:54:45.404Z,41.40
2023-10-18T05:57:17.979Z,41.00
2023-10-18T05:59:47.941Z,40.60
2023-10-18T06:02:24.200Z,40.50
2023-10-18T06:04:53.010Z,40.30
2023-10-18T06:07:24.297Z,40.20
2023-10-18T06:09:59.714Z,40.00
2023-10-18T06:12:31.820Z,39.70
2023-10-18T06:14:59.412Z,39.70
2023-10-18T06:17:46.397Z,39.60
2023-10-18T06:20:31.214Z,39.60
2023-10-18T06:23:11.520Z,39.50
2023-10-18T06:25:40.218Z,39.40
2023-10-18T06:28:10.165Z,39.20
2023-10-18T06:30:41.120Z,39.00
2023-10-18T06:33:10.579Z,39.00
2023-10-18T06:35:44.426Z,38.90
2023-10-18T06:38:19.464Z,38.60
2023-10-18T06:41:06.901Z,38.30
2023-10-18T06:43:34.611Z,38.20
2023-10-18T06:46:02.049Z,38.40
2023-10-18T06:48:30.482Z,38.20
2023-10-18T06:50:59.256Z,38.10
2023-10-18T06:53:30.702Z,38.60
2023-10-18T06:56:03.994Z,38.00
2023-10-18T06:58:45.455Z,37.90
2023-10-18T07:01:20.949Z,37.80
2023-10-18T07:03:48.929Z,37.90
2023-10-18T07:06:26.204Z,37.90
2023-10-18T07:08:53.402Z,37.90
2023-10-18T07:11:28.872Z,37.90
2023-10-18T07:14:05.768Z,37.80
2023-10-18T07:16:40.511Z,37.80
2023-10-18T07:19:22.671Z,37.70
2023-10-18T07:21:50.117Z,37.80
2023-10-18T07:24:19.070Z,37.80
2023-10-18T07:26:49.172Z,37.90
2023-10-18T07:29:16.678Z,37.90
2023-10-18T07:31:46.648Z,38.00
2023-10-18T07:34:20.603Z,37.90
2023-10-18T07:36:47.901Z,37.90
2023-10-18T07:39:18.223Z,37.90
2023-10-18T07:41:45.422Z,37.90
2023-10-18T07:44:12.550Z,37.80
2023-10-18T07:46:42.562Z,37.60
2023-10-18T07:49:15.721Z,37.80
2023-10-18T07:51:50.459Z,37.70
2023-10-18T07:54:18.925Z,37.60
2023-10-18T07:56:54.409Z,37.50
2023-10-18T07:59:29.757Z,37.50
2023-10-18T08:02:11.151Z,37.60
2023-10-18T08:04:39.196Z,37.40
2023-10-18T08:07:11.634Z,37.30
2023-10-18T08:09:41.290Z,37.30
2023-10-18T08:12:29.008Z,37.30
2023-10-18T08:14:56.126Z,37.20
2023-10-18T08:17:43.314Z,37.10
2023-10-18T08:20:31.114Z,37.00
2023-10-18T08:23:06.662Z,37.00
2023-10-18T08:25:36.580Z,37.20
2023-10-18T08:28:07.758Z,36.90
2023-10-18T08:30:54.712Z,36.80
2023-10-18T08:33:24.428Z,36.80
2023-10-18T08:35:59.915Z,36.70
2023-10-18T08:38:28.293Z,36.50
2023-10-18T08:41:13.035Z,36.50
2023-10-18T08:43:45.807Z,36.50
2023-10-18T08:46:12.816Z,36.40
2023-10-18T08:48:40.097Z,36.60
2023-10-18T08:51:07.620Z,36.50
2023-10-18T08:53:36.878Z,36.40
2023-10-18T08:56:07.852Z,36.30
2023-10-18T08:58:36.301Z,36.30
2023-10-18T09:01:04.552Z,36.30
2023-10-18T09:03:33.530Z,36.20
2023-10-18T09:06:07.360Z,36.20
2023-10-18T09:08:37.338Z,36.50
2023-10-18T09:11:24.458Z,36.50
2023-10-18T09:14:12.269Z,36.50
2023-10-18T09:16:40.544Z,36.50
2023-10-18T09:19:10.484Z,36.50
2023-10-18T09:21:52.090Z,36.50
2023-10-18T09:24:24.913Z,36.70
2023-10-18T09:26:52.412Z,36.50
2023-10-18T09:29:19.531Z,36.50
2023-10-18T09:32:04.122Z,36.50
2023-10-18T09:34:44.078Z,36.50
2023-10-18T09:37:15.186Z,36.40
2023-10-18T09:39:45.481Z,36.40
2023-10-18T09:42:17.553Z,36.30
2023-10-18T09:44:45.858Z,36.30
2023-10-18T09:47:13.902Z,36.40
2023-10-18T09:49:42.381Z,36.20
2023-10-18T09:52:13.312Z,36.20
2023-10-18T09:54:48.585Z,36.10
2023-10-18T09:57:20.434Z,36.20
2023-10-18T09:59:48.938Z,36.10
2023-10-18T10:02:18.135Z,36.10
2023-10-18T10:04:53.575Z,36.00
2023-10-18T10:07:40.920Z,36.10
2023-10-18T10:10:11.513Z,36.00
2023-10-18T10:12:43.630Z,36.00
2023-10-18T10:15:24.310Z,36.00
2023-10-18T10:17:58.581Z,35.80
2023-10-18T10:20:33.595Z,35.90
2023-10-18T10:23:03.828Z,35.80
2023-10-18T10:25:41.371Z,35.80
2023-10-18T10:28:59.792Z,35.70
2023-10-18T10:31:28.079Z,36.00
2023-10-18T10:34:08.316Z,35.60
2023-10-18T10:36:38.087Z,35.50
2023-10-18T10:39:11.192Z,35.60
2023-10-18T10:41:38.239Z,35.50
2023-10-18T10:44:09.518Z,35.30
2023-10-18T10:46:39.208Z,35.30
2023-10-18T10:49:29.957Z,35.30
2023-10-18T10:51:58.002Z,35.20
2023-10-18T10:54:27.855Z,35.20
2023-10-18T10:56:56.318Z,35.10
2023-10-18T10:59:24.535Z,35.10
2023-10-18T11:01:58.898Z,35.00
2023-10-18T11:04:51.262Z,34.80
2023-10-18T11:07:26.010Z,34.40
2023-10-18T11:10:01.373Z,34.50
2023-10-18T11:12:28.826Z,34.30
2023-10-18T11:14:56.449Z,34.20
2023-10-18T11:17:27.077Z,34.20
2023-10-18T11:20:00.863Z,34.00
2023-10-18T11:22:35.421Z,33.80
2023-10-18T11:25:07.515Z,33.80
2023-10-18T11:27:35.781Z,33.80
2023-10-18T11:30:23.577Z,33.90
2023-10-18T11:32:52.142Z,33.80
2023-10-18T11:35:19.924Z,33.80
2023-10-18T11:37:49.122Z,33.70
2023-10-18T11:40:20.007Z,33.50
2023-10-18T11:42:57.358Z,33.60
2023-10-18T11:45:29.540Z,33.50
2023-10-18T11:47:57.012Z,33.20
2023-10-18T11:50:25.283Z,33.20
2023-10-18T11:52:53.740Z,32.70
2023-10-18T11:55:24.098Z,32.80
2023-10-18T11:57:51.633Z,32.80
2023-10-18T12:00:27.569Z,32.60
2023-10-18T12:02:56.297Z,32.60
2023-10-18T12:05:29.398Z,32.70
2023-10-18T12:08:07.173Z,32.60
2023-10-18T12:10:37.456Z,32.60
2023-10-18T12:13:07.950Z,32.50
2023-10-18T12:15:36.058Z,32.70
2023-10-18T12:18:05.967Z,32.50
2023-10-18T12:20:36.665Z,32.60
2023-10-18T12:23:20.273Z,32.40
2023-10-18T12:25:47.779Z,32.10
2023-10-18T12:28:19.320Z,32.10
2023-10-18T12:30:53.031Z,32.40
2023-10-18T12:33:29.816Z,33.10
2023-10-18T12:36:01.299Z,32.50
2023-10-18T12:38:36.390Z,32.40
2023-10-18T12:41:07.553Z,32.40
2023-10-18T12:43:39.527Z,32.40
2023-10-18T12:46:07.821Z,32.50
2023-10-18T12:48:37.378Z,32.10
2023-10-18T12:51:10.270Z,32.50
2023-10-18T12:53:49.032Z,32.60
2023-10-18T12:56:24.901Z,32.50
2023-10-18T12:59:12.612Z,32.40
2023-10-18T13:01:48.342Z,32.00
2023-10-18T13:04:19.082Z,31.80
2023-10-18T13:06:46.635Z,31.60
2023-10-18T13:09:21.289Z,31.90
2023-10-18T13:12:02.130Z,32.10
2023-10-18T13:14:33.373Z,31.90
2023-10-18T13:17:04.922Z,32.20
2023-10-18T13:19:33.390Z,32.50
2023-10-18T13:22:00.871Z,32.50
2023-10-18T13:24:30.902Z,32.70
2023-10-18T13:27:01.721Z,32.80
2023-10-18T13:29:32.126Z,32.80
2023-10-18T13:31:59.789Z,32.70
2023-10-18T13:34:47.303Z,32.70
2023-10-18T13:37:15.495Z,32.80
2023-10-18T13:39:49.597Z,32.80
2023-10-18T13:42:16.685Z,32.60
2023-10-18T13:44:43.763Z,32.60
2023-10-18T13:47:14.271Z,32.60
2023-10-18T13:49:41.819Z,32.80
2023-10-18T13:52:09.296Z,32.70
2023-10-18T13:54:37.878Z,32.70
2023-10-18T13:57:06.824Z,32.60
2023-10-18T13:59:35.949Z,32.50
2023-10-18T14:02:04.070Z,32.60
2023-10-18T14:04:34.376Z,32.80
2023-10-18T14:07:01.832Z,32.80
2023-10-18T14:09:35.324Z,32.90
2023-10-18T14:12:03.206Z,33.00
2023-10-18T14:14:33.030Z,33.00
2023-10-18T14:17:01.328Z,33.10
2023-10-18T14:19:31.514Z,33.60
2023-10-18T14:21:58.750Z,33.60
2023-10-18T14:24:31.367Z,33.80
2023-10-18T14:27:00.713Z,33.70
2023-10-18T14:29:28.127Z,33.80
2023-10-18T14:31:55.143Z,33.80
2023-10-18T14:34:23.989Z,33.70
2023-10-18T14:36:52.043Z,33.80
2023-10-18T14:39:35.781Z,33.70
2023-10-18T14:42:08.313Z,33.50
2023-10-18T14:44:35.727Z,33.50
2023-10-18T14:47:03.592Z,33.60
2023-10-18T14:49:33.339Z,33.90
2023-10-18T14:52:00.891Z,34.10
2023-10-18T14:54:27.868Z,34.30
2023-10-18T14:56:54.831Z,34.30
2023-10-18T14:59:21.840Z,34.50
2023-10-18T15:01:48.791Z,34.60
2023-10-18T15:04:15.796Z,34.90
2023-10-18T15:06:42.718Z,35.20
2023-10-18T15:09:09.652Z,35.60
2023-10-18T15:11:40.167Z,35.90
2023-10-18T15:14:08.743Z,36.30
2023-10-18T15:16:35.847Z,36.90
2023-10-18T15:19:05.309Z,36.80
2023-10-18T15:21:32.752Z,36.60
2023-10-18T15:23:59.674Z,36.90
2023-10-18T15:26:31.196Z,37.00
2023-10-18T15:28:58.469Z,37.30
2023-10-18T15:31:25.585Z,37.50
2023-10-18T15:33:53.374Z,37.60
2023-10-18T15:36:22.556Z,37.80
2023-10-18T15:38:50.221Z,37.90
2023-10-18T15:41:24.172Z,37.80
2023-10-18T15:43:52.698Z,38.00
2023-10-18T15:46:30.954Z,37.80
2023-10-18T15:49:01.396Z,38.00
2023-10-18T15:51:29.336Z,38.20
2023-10-18T15:53:58.930Z,38.60
2023-10-18T15:56:27.383Z,39.20
2023-10-18T15:58:55.531Z,40.20
2023-10-18T16:01:23.111Z,41.10
2023-10-18T16:03:50.481Z,41.30
2023-10-18T16:06:18.572Z,40.90
2023-10-18T16:08:48.103Z,40.50
2023-10-18T16:11:15.682Z,40.30
2023-10-18T16:13:42.703Z,40.10
2023-10-18T16:16:10.849Z,40.00
2023-10-18T16:18:39.196Z,39.80
2023-10-18T16:21:08.651Z,39.70
2023-10-18T16:23:42.500Z,39.70
2023-10-18T16:26:17.513Z,39.70
2023-10-18T16:28:44.588Z,39.70
2023-10-18T16:31:14.905Z,39.70
2023-10-18T16:33:42.718Z,39.70
2023-10-18T16:36:10.174Z,39.70
2023-10-18T16:38:38.043Z,39.80
2023-10-18T16:41:05.728Z,39.70
2023-10-18T16:43:33.322Z,39.80
2023-10-18T16:46:04.131Z,39.80
2023-10-18T16:48:31.439Z,39.80
2023-10-18T16:51:08.060Z,39.80
2023-10-18T16:53:35.886Z,39.90
2023-10-18T16:56:05.689Z,40.00
2023-10-18T16:58:33.331Z,40.10
2023-10-18T17:01:01.486Z,40.10
2023-10-18T17:03:32.799Z,40.10
2023-10-18T17:06:00.479Z,40.20
2023-10-18T17:08:27.792Z,40.20
2023-10-18T17:10:55.166Z,40.30
2023-10-18T17:13:22.313Z,40.30
2023-10-18T17:15:50.730Z,40.40
2023-10-18T17:18:19.428Z,40.40
2023-10-18T17:20:54.451Z,40.50
2023-10-18T17:23:30.270Z,40.50
2023-10-18T17:25:57.265Z,40.60
2023-10-18T17:28:24.236Z,40.70
2023-10-18T17:30:51.201Z,40.60
2023-10-18T17:33:18.335Z,40.70
2023-10-18T17:35:46.145Z,40.80
2023-10-18T17:38:16.279Z,40.90
2023-10-18T17:40:43.268Z,40.90
2023-10-18T17:43:11.479Z,41.00
2023-10-18T17:45:38.585Z,41.00
2023-10-18T17:48:09.925Z,41.10
2023-10-18T17:50:37.514Z,41.10
2023-10-18T17:53:04.692Z,41.10
2023-10-18T17:55:32.771Z,41.10
2023-10-18T17:57:59.805Z,41.10
2023-10-18T18:00:27.853Z,41.10
2023-10-18T18:02:58.817Z,41.10
2023-10-18T18:05:32.766Z,41.10
2023-10-18T18:08:00.766Z,41.10
2023-10-18T18:10:28.893Z,41.10
2023-10-18T18:12:58.883Z,41.10
2023-10-18T18:15:26.011Z,41.10
2023-10-18T18:17:53.076Z,41.10
2023-10-18T18:20:24.256Z,41.10
2023-10-18T18:22:51.380Z,41.00
2023-10-18T18:25:21.347Z,41.10
2023-10-18T18:27:48.273Z,41.40
2023-10-18T18:30:17.609Z,41.10
2023-10-18T18:32:44.850Z,41.10
2023-10-18T18:35:14.437Z,41.10
2023-10-18T18:37:44.868Z,41.10
2023-10-18T18:40:12.389Z,41.10
2023-10-18T18:42:42.916Z,41.10
2023-10-18T18:45:13.721Z,41.10
2023-10-18T18:47:41.551Z,41.00
2023-10-18T18:50:13.149Z,41.20
2023-10-18T18:52:43.865Z,41.20
2023-10-18T18:55:11.809Z,41.10
2023-10-18T18:57:40.306Z,41.20
2023-10-18T19:00:18.505Z,41.20
2023-10-18T19:02:47.031Z,41.20
2023-10-18T19:05:15.265Z,41.30
2023-10-18T19:07:44.222Z,41.30
2023-10-18T19:10:12.117Z,41.20
2023-10-18T19:12:39.063Z,41.20
2023-10-18T19:15:11.954Z,41.20
2023-10-18T19:17:40.060Z,41.20
2023-10-18T19:20:12.977Z,41.10
2023-10-18T19:22:40.284Z,41.10
2023-10-18T19:25:11.175Z,41.10
2023-10-18T19:27:38.141Z,41.10
2023-10-18T19:30:06.370Z,41.00
2023-10-18T19:32:35.615Z,41.10
2023-10-18T19:35:03.135Z,41.10
2023-10-18T19:37:30.075Z,41.10
2023-10-18T19:39:56.984Z,41.10
2023-10-18T19:42:23.940Z,41.10
2023-10-18T19:44:50.865Z,41.10
2023-10-18T19:47:17.773Z,41.10
2023-10-18T19:49:46.500Z,41.10
2023-10-18T19:52:13.403Z,41.10
2023-10-18T19:54:40.330Z,41.20
2023-10-18T19:57:07.211Z,41.10
2023-10-18T19:59:34.393Z,41.10
2023-10-18T20:02:29.009Z,41.20
2023-10-18T20:04:55.982Z,41.10
2023-10-18T20:07:22.894Z,41.20
2023-10-18T20:09:50.733Z,41.20
2023-10-18T20:12:17.830Z,41.20
2023-10-18T20:14:45.845Z,41.20
2023-10-18T20:17:15.006Z,41.20
2023-10-18T20:19:42.000Z,41.20
2023-10-18T20:22:08.942Z,41.30
2023-10-18T20:24:35.923Z,41.30
2023-10-18T20:27:04.934Z,41.30
2023-10-18T20:29:32.280Z,41.30
2023-10-18T20:32:03.792Z,41.30
2023-10-18T20:34:32.780Z,41.20
2023-10-18T20:36:59.776Z,41.20
2023-10-18T20:39:30.703Z,41.20
2023-10-18T20:42:05.536Z,41.20
2023-10-18T20:44:32.684Z,41.20
2023-10-18T20:47:04.545Z,41.20
2023-10-18T20:49:33.997Z,41.20
2023-10-18T20:52:01.668Z,41.20
2023-10-18T20:54:34.180Z,41.20
2023-10-18T20:57:12.220Z,41.20
2023-10-18T20:59:46.617Z,41.20
2023-10-18T21:02:18.037Z,41.20
2023-10-18T21:04:49.165Z,41.20
2023-10-18T21:07:26.174Z,41.20
2023-10-18T21:09:53.677Z,41.20
2023-10-18T21:12:22.410Z,41.20
2023-10-18T21:14:49.953Z,41.20
2023-10-18T21:17:16.996Z,41.20
2023-10-18T21:19:44.560Z,41.20
2023-10-18T21:22:11.833Z,41.20
2023-10-18T21:24:38.879Z,41.20
2023-10-18T21:27:05.836Z,41.20
2023-10-18T21:29:32.778Z,41.30
2023-10-18T21:32:00.061Z,41.20
2023-10-18T21:34:27.290Z,41.30
2023-10-18T21:36:55.703Z,41.20
2023-10-18T21:39:26.540Z,41.30
2023-10-18T21:41:54.631Z,41.20
2023-10-18T21:44:21.582Z,41.20
2023-10-18T21:46:48.517Z,41.30
2023-10-18T21:49:15.520Z,41.30
2023-10-18T21:51:42.424Z,41.30
2023-10-18T21:54:09.392Z,41.30
2023-10-18T21:56:36.244Z,41.30
2023-10-18T21:59:03.374Z,41.30
2023-10-18T22:01:46.103Z,41.30
2023-10-18T22:04:13.122Z,41.30
2023-10-18T22:06:40.843Z,41.20
2023-10-18T22:09:27.826Z,41.20
2023-10-18T22:11:55.265Z,41.20
2023-10-18T22:14:22.658Z,41.20
2023-10-18T22:16:57.615Z,41.20
2023-10-18T22:19:29.138Z,41.20
2023-10-18T22:21:56.872Z,41.20
2023-10-18T22:24:28.211Z,41.20
2023-10-18T22:26:58.406Z,41.40
2023-10-18T22:29:29.646Z,41.30
2023-10-18T22:32:10.662Z,41.30
2023-10-18T22:34:43.386Z,41.30
2023-10-18T22:37:14.197Z,41.30
2023-10-18T22:39:42.634Z,41.30
2023-10-18T22:42:15.652Z,41.20
2023-10-18T22:44:43.282Z,41.30
2023-10-18T22:47:30.302Z,41.30
2023-10-18T22:50:00.388Z,41.30
2023-10-18T22:52:28.114Z,41.20
2023-10-18T22:55:15.745Z,41.20
2023-10-18T22:57:43.576Z,41.30
2023-10-18T23:00:14.187Z,41.30
2023-10-18T23:02:44.234Z,41.30
2023-10-18T23:05:18.427Z,41.30
2023-10-18T23:07:54.953Z,41.30
2023-10-18T23:10:43.037Z,41.30
2023-10-18T23:13:24.704Z,41.40
2023-10-18T23:15:57.152Z,41.30
2023-10-18T23:18:30.549Z,41.30
2023-10-18T23:21:24.259Z,41.40
2023-10-18T23:24:11.142Z,41.30
2023-10-18T23:26:57.955Z,41.30
2023-10-18T23:29:24.908Z,41.30
2023-10-18T23:32:09.305Z,41.30
2023-10-18T23:34:38.087Z,41.30
2023-10-18T23:37:13.714Z,41.30
2023-10-18T23:39:44.646Z,41.30
2023-10-18T23:42:15.802Z,41.30
2023-10-18T23:45:03.478Z,41.30
2023-10-18T23:47:50.285Z,41.30
2023-10-18T23:50:37.385Z,41.30
2023-10-18T23:53:24.635Z,41.30
2023-10-18T23:56:04.042Z,41.30
2023-10-18T23:58:31.017Z,41.30
